KHHR

Details ICAO KHHR (HHR)
Name Jack Northrop Fld Hawthorne Muni
Region United States
Timezone America/Los_Angeles (UTC-8.0)
Plans Departing 34
Arriving 29
Stats Elevation 66 ft / 20 m (AMSL)
Location 33.922857° -118.335162°
Runways 1
Magnetic Variation 11.987° E
Sunrise 2017-12-18 14:54:35 UTC / 2017-12-18 06:54:35 Local
Sunset 2017-12-19 00:48:20 UTC / 2017-12-18 16:48:20 Local
Advertisement - Login to hide

Runways

ID Width Length Bearing (true) Bearing (mag) Surface Threshold Offset Overrun Length
07 98 ft / 30 m 4,961 ft / 1,512 m 86.70° 74.71° Concrete 971 ft / 296 m 0 ft / 0 m
25 98 ft / 30 m 4,961 ft / 1,512 m 266.70° 254.71° Concrete 463 ft / 141 m 0 ft / 0 m

Approach Navaids

Runway Type Ident Frequency Range Bearing (true) Bearing (mag) Slope Elevation
25 Localiser IHHR 109.10 MHz 18 nm / 33 km 266.65° 254.66° - 66 ft / 20 m (AMSL)

Map

Weather


0- 5 10 15 20 25 30 35+ Temperature / ° C

Clouds and Precipitation
Forecast for 2017-12-19 00:00 UTC. Updated an hour ago

Ground ~20,000 ft ~40,000 ft Winds

METAR

KHHR 181953Z 00000KT 10SM CLR 21/M06 A3015 RMK AO2 SLP210 T02061061

TAF

Not found

Frequencies

Recorded 118.40 MHz ATIS
Ground 125.10 MHz GND
Approach 124.30 MHz SOCAL APP
Approach 125.20 MHz SOCAL APP
Departure 124.30 MHz SOCAL DEP
Unicom 121.10 MHz CTAF
Tower 121.10 MHz TWR
Approach 124.90 MHz SOCAL APP
Approach 128.50 MHz SOCAL APP
Warning: Do not use this data for real-world aviation or navigation. No guarantee of current accuracy is given.